sensor_id;sensor_type;location;lat;lon;timestamp;P1;durP1;ratioP1;P2;durP2;ratioP2
21941;SDS011;11135;54.192;15.670;2022-08-21T00:02:59;8.93;;;8.02;;
21941;SDS011;11135;54.192;15.670;2022-08-21T00:09:06;9.13;;;8.05;;
21941;SDS011;11135;54.192;15.670;2022-08-21T00:15:12;8.75;;;7.68;;
21941;SDS011;11135;54.192;15.670;2022-08-21T00:21:21;9.00;;;8.10;;
21941;SDS011;11135;54.192;15.670;2022-08-21T00:27:26;9.93;;;7.20;;
21941;SDS011;11135;54.192;15.670;2022-08-21T00:33:29;9.55;;;7.32;;
21941;SDS011;11135;54.192;15.670;2022-08-21T00:39:33;8.13;;;7.03;;
21941;SDS011;11135;54.192;15.670;2022-08-21T00:51:43;7.90;;;6.60;;
21941;SDS011;11135;54.192;15.670;2022-08-21T00:57:52;7.38;;;6.55;;
21941;SDS011;11135;54.192;15.670;2022-08-21T01:04:01;6.63;;;5.80;;
21941;SDS011;11135;54.192;15.670;2022-08-21T01:10:06;7.50;;;5.63;;
21941;SDS011;11135;54.192;15.670;2022-08-21T01:16:21;8.00;;;5.53;;
21941;SDS011;11135;54.192;15.670;2022-08-21T01:22:27;7.13;;;5.97;;
21941;SDS011;11135;54.192;15.670;2022-08-21T01:28:31;7.18;;;5.25;;
21941;SDS011;11135;54.192;15.670;2022-08-21T01:34:40;8.35;;;5.75;;
21941;SDS011;11135;54.192;15.670;2022-08-21T01:40:47;6.47;;;4.97;;
21941;SDS011;11135;54.192;15.670;2022-08-21T01:46:51;6.60;;;5.38;;
21941;SDS011;11135;54.192;15.670;2022-08-21T01:52:56;6.40;;;4.30;;
21941;SDS011;11135;54.192;15.670;2022-08-21T01:59:02;5.55;;;4.30;;
21941;SDS011;11135;54.192;15.670;2022-08-21T02:05:05;6.90;;;4.38;;
21941;SDS011;11135;54.192;15.670;2022-08-21T02:11:10;6.05;;;3.50;;
21941;SDS011;11135;54.192;15.670;2022-08-21T02:17:15;3.17;;;2.42;;
21941;SDS011;11135;54.192;15.670;2022-08-21T02:23:18;4.72;;;2.60;;
21941;SDS011;11135;54.192;15.670;2022-08-21T02:29:28;4.28;;;2.22;;
21941;SDS011;11135;54.192;15.670;2022-08-21T02:35:33;4.32;;;2.20;;
21941;SDS011;11135;54.192;15.670;2022-08-21T02:41:36;3.25;;;2.20;;
21941;SDS011;11135;54.192;15.670;2022-08-21T02:47:40;2.63;;;1.73;;
21941;SDS011;11135;54.192;15.670;2022-08-21T02:53:52;4.18;;;1.88;;
21941;SDS011;11135;54.192;15.670;2022-08-21T02:59:55;3.92;;;2.10;;
21941;SDS011;11135;54.192;15.670;2022-08-21T03:05:59;5.25;;;2.03;;
21941;SDS011;11135;54.192;15.670;2022-08-21T03:12:04;4.25;;;2.00;;
21941;SDS011;11135;54.192;15.670;2022-08-21T03:18:09;4.15;;;1.85;;
21941;SDS011;11135;54.192;15.670;2022-08-21T03:24:13;5.47;;;2.33;;
21941;SDS011;11135;54.192;15.670;2022-08-21T03:30:23;3.15;;;1.50;;
21941;SDS011;11135;54.192;15.670;2022-08-21T03:36:27;5.60;;;1.98;;
21941;SDS011;11135;54.192;15.670;2022-08-21T03:42:30;6.28;;;1.98;;
21941;SDS011;11135;54.192;15.670;2022-08-21T03:48:36;3.47;;;1.63;;
21941;SDS011;11135;54.192;15.670;2022-08-21T03:54:40;5.07;;;2.03;;
21941;SDS011;11135;54.192;15.670;2022-08-21T04:00:44;4.72;;;1.88;;
21941;SDS011;11135;54.192;15.670;2022-08-21T04:06:49;3.72;;;1.58;;
21941;SDS011;11135;54.192;15.670;2022-08-21T04:12:53;3.55;;;1.55;;
21941;SDS011;11135;54.192;15.670;2022-08-21T04:18:58;4.18;;;1.75;;
21941;SDS011;11135;54.192;15.670;2022-08-21T04:25:03;3.92;;;1.65;;
21941;SDS011;11135;54.192;15.670;2022-08-21T04:31:09;5.28;;;1.77;;
21941;SDS011;11135;54.192;15.670;2022-08-21T04:37:12;3.00;;;1.38;;
21941;SDS011;11135;54.192;15.670;2022-08-21T04:43:18;4.78;;;1.45;;
21941;SDS011;11135;54.192;15.670;2022-08-21T04:49:25;4.90;;;1.83;;
21941;SDS011;11135;54.192;15.670;2022-08-21T04:55:28;4.35;;;1.40;;
21941;SDS011;11135;54.192;15.670;2022-08-21T05:01:34;5.65;;;1.52;;
21941;SDS011;11135;54.192;15.670;2022-08-21T05:07:40;5.03;;;1.50;;
21941;SDS011;11135;54.192;15.670;2022-08-21T05:13:47;3.92;;;1.20;;
21941;SDS011;11135;54.192;15.670;2022-08-21T05:19:59;3.75;;;1.50;;
21941;SDS011;11135;54.192;15.670;2022-08-21T05:26:04;4.93;;;1.60;;
21941;SDS011;11135;54.192;15.670;2022-08-21T05:32:18;3.90;;;1.50;;
21941;SDS011;11135;54.192;15.670;2022-08-21T05:38:24;3.53;;;1.50;;
21941;SDS011;11135;54.192;15.670;2022-08-21T05:44:29;4.03;;;1.23;;
21941;SDS011;11135;54.192;15.670;2022-08-21T05:50:34;4.80;;;1.52;;
21941;SDS011;11135;54.192;15.670;2022-08-21T05:56:41;3.85;;;1.50;;
21941;SDS011;11135;54.192;15.670;2022-08-21T06:02:46;3.78;;;1.30;;
21941;SDS011;11135;54.192;15.670;2022-08-21T06:08:50;4.22;;;1.90;;
21941;SDS011;11135;54.192;15.670;2022-08-21T06:14:55;2.70;;;1.10;;
21941;SDS011;11135;54.192;15.670;2022-08-21T06:20:59;4.50;;;1.40;;
21941;SDS011;11135;54.192;15.670;2022-08-21T06:33:11;27.50;;;3.67;;
21941;SDS011;11135;54.192;15.670;2022-08-21T06:39:19;25.75;;;2.90;;
21941;SDS011;11135;54.192;15.670;2022-08-21T06:45:26;12.10;;;2.15;;
21941;SDS011;11135;54.192;15.670;2022-08-21T06:51:34;6.95;;;1.60;;
21941;SDS011;11135;54.192;15.670;2022-08-21T06:57:38;8.48;;;1.80;;
21941;SDS011;11135;54.192;15.670;2022-08-21T07:03:48;7.05;;;1.30;;
21941;SDS011;11135;54.192;15.670;2022-08-21T07:09:54;7.70;;;1.48;;
21941;SDS011;11135;54.192;15.670;2022-08-21T07:15:57;5.95;;;1.40;;
21941;SDS011;11135;54.192;15.670;2022-08-21T07:22:05;3.65;;;1.60;;
21941;SDS011;11135;54.192;15.670;2022-08-21T07:34:13;4.88;;;1.63;;
21941;SDS011;11135;54.192;15.670;2022-08-21T07:40:17;5.32;;;1.42;;
21941;SDS011;11135;54.192;15.670;2022-08-21T07:46:22;6.40;;;1.25;;
21941;SDS011;11135;54.192;15.670;2022-08-21T07:52:28;3.90;;;1.40;;
21941;SDS011;11135;54.192;15.670;2022-08-21T07:58:32;6.20;;;1.55;;
21941;SDS011;11135;54.192;15.670;2022-08-21T08:10:52;6.03;;;1.20;;
21941;SDS011;11135;54.192;15.670;2022-08-21T08:16:56;3.85;;;1.33;;
21941;SDS011;11135;54.192;15.670;2022-08-21T08:29:05;5.63;;;1.25;;
21941;SDS011;11135;54.192;15.670;2022-08-21T08:35:09;5.45;;;1.30;;
21941;SDS011;11135;54.192;15.670;2022-08-21T08:41:16;11.82;;;1.60;;
21941;SDS011;11135;54.192;15.670;2022-08-21T08:47:32;4.82;;;1.50;;
21941;SDS011;11135;54.192;15.670;2022-08-21T08:53:43;5.32;;;1.10;;
21941;SDS011;11135;54.192;15.670;2022-08-21T08:59:55;5.63;;;1.45;;
21941;SDS011;11135;54.192;15.670;2022-08-21T09:06:04;4.63;;;1.42;;
21941;SDS011;11135;54.192;15.670;2022-08-21T09:12:16;7.80;;;1.60;;
21941;SDS011;11135;54.192;15.670;2022-08-21T09:18:32;4.27;;;1.60;;
21941;SDS011;11135;54.192;15.670;2022-08-21T09:24:47;5.32;;;1.30;;
21941;SDS011;11135;54.192;15.670;2022-08-21T09:31:03;2.40;;;1.38;;
21941;SDS011;11135;54.192;15.670;2022-08-21T09:37:17;4.93;;;1.48;;
21941;SDS011;11135;54.192;15.670;2022-08-21T09:43:22;4.65;;;2.00;;
21941;SDS011;11135;54.192;15.670;2022-08-21T09:49:28;5.57;;;1.70;;
21941;SDS011;11135;54.192;15.670;2022-08-21T09:55:37;5.93;;;1.90;;
21941;SDS011;11135;54.192;15.670;2022-08-21T10:02:20;4.60;;;1.50;;
21941;SDS011;11135;54.192;15.670;2022-08-21T10:08:26;5.40;;;1.50;;
21941;SDS011;11135;54.192;15.670;2022-08-21T10:14:37;6.65;;;1.40;;
21941;SDS011;11135;54.192;15.670;2022-08-21T10:20:52;6.10;;;1.70;;
21941;SDS011;11135;54.192;15.670;2022-08-21T10:27:06;3.33;;;1.50;;
21941;SDS011;11135;54.192;15.670;2022-08-21T10:33:31;4.65;;;1.42;;
21941;SDS011;11135;54.192;15.670;2022-08-21T10:39:43;4.93;;;1.80;;
21941;SDS011;11135;54.192;15.670;2022-08-21T10:45:59;10.13;;;4.05;;
21941;SDS011;11135;54.192;15.670;2022-08-21T10:52:20;8.70;;;4.63;;
21941;SDS011;11135;54.192;15.670;2022-08-21T10:58:36;8.50;;;3.03;;
21941;SDS011;11135;54.192;15.670;2022-08-21T11:04:49;6.53;;;2.67;;
21941;SDS011;11135;54.192;15.670;2022-08-21T11:10:59;6.22;;;1.90;;
21941;SDS011;11135;54.192;15.670;2022-08-21T11:17:10;5.80;;;2.08;;
21941;SDS011;11135;54.192;15.670;2022-08-21T11:23:21;5.07;;;1.70;;
21941;SDS011;11135;54.192;15.670;2022-08-21T11:29:30;5.00;;;1.80;;
21941;SDS011;11135;54.192;15.670;2022-08-21T11:35:38;6.35;;;1.85;;
21941;SDS011;11135;54.192;15.670;2022-08-21T11:41:47;4.60;;;1.75;;
21941;SDS011;11135;54.192;15.670;2022-08-21T11:48:00;3.75;;;1.70;;
21941;SDS011;11135;54.192;15.670;2022-08-21T11:54:20;4.05;;;1.48;;
21941;SDS011;11135;54.192;15.670;2022-08-21T12:00:31;2.17;;;1.33;;
21941;SDS011;11135;54.192;15.670;2022-08-21T12:06:41;4.72;;;1.48;;
21941;SDS011;11135;54.192;15.670;2022-08-21T12:12:44;7.63;;;2.20;;
21941;SDS011;11135;54.192;15.670;2022-08-21T12:24:53;5.37;;;2.23;;
21941;SDS011;11135;54.192;15.670;2022-08-21T12:31:16;6.95;;;2.00;;
21941;SDS011;11135;54.192;15.670;2022-08-21T12:37:30;4.90;;;2.03;;
21941;SDS011;11135;54.192;15.670;2022-08-21T12:43:42;7.63;;;1.98;;
21941;SDS011;11135;54.192;15.670;2022-08-21T12:49:52;2.38;;;1.33;;
21941;SDS011;11135;54.192;15.670;2022-08-21T12:56:01;4.72;;;1.40;;
21941;SDS011;11135;54.192;15.670;2022-08-21T13:02:11;3.47;;;1.33;;
21941;SDS011;11135;54.192;15.670;2022-08-21T13:08:20;4.30;;;1.50;;
21941;SDS011;11135;54.192;15.670;2022-08-21T13:14:27;4.60;;;1.35;;
21941;SDS011;11135;54.192;15.670;2022-08-21T13:20:36;4.68;;;1.20;;
21941;SDS011;11135;54.192;15.670;2022-08-21T13:26:41;3.30;;;1.25;;
21941;SDS011;11135;54.192;15.670;2022-08-21T13:32:48;4.97;;;1.50;;
21941;SDS011;11135;54.192;15.670;2022-08-21T13:38:56;4.22;;;1.30;;
21941;SDS011;11135;54.192;15.670;2022-08-21T13:45:01;3.53;;;1.30;;
21941;SDS011;11135;54.192;15.670;2022-08-21T13:51:05;4.93;;;1.45;;
21941;SDS011;11135;54.192;15.670;2022-08-21T13:57:17;4.70;;;1.73;;
21941;SDS011;11135;54.192;15.670;2022-08-21T14:03:31;3.27;;;1.10;;
21941;SDS011;11135;54.192;15.670;2022-08-21T14:09:39;4.43;;;1.33;;
21941;SDS011;11135;54.192;15.670;2022-08-21T14:15:47;3.10;;;1.48;;
21941;SDS011;11135;54.192;15.670;2022-08-21T14:34:22;6.18;;;1.48;;
21941;SDS011;11135;54.192;15.670;2022-08-21T14:40:33;5.45;;;1.23;;
21941;SDS011;11135;54.192;15.670;2022-08-21T14:46:37;2.90;;;1.40;;
21941;SDS011;11135;54.192;15.670;2022-08-21T14:52:58;2.88;;;1.05;;
21941;SDS011;11135;54.192;15.670;2022-08-21T14:59:03;4.38;;;1.55;;
21941;SDS011;11135;54.192;15.670;2022-08-21T15:05:09;4.70;;;1.25;;
21941;SDS011;11135;54.192;15.670;2022-08-21T15:11:17;6.65;;;1.40;;
21941;SDS011;11135;54.192;15.670;2022-08-21T15:17:42;3.03;;;1.10;;
21941;SDS011;11135;54.192;15.670;2022-08-21T15:23:49;4.57;;;1.35;;
21941;SDS011;11135;54.192;15.670;2022-08-21T15:29:54;5.05;;;1.25;;
21941;SDS011;11135;54.192;15.670;2022-08-21T15:35:58;3.17;;;1.13;;
21941;SDS011;11135;54.192;15.670;2022-08-21T15:42:02;4.18;;;1.30;;
21941;SDS011;11135;54.192;15.670;2022-08-21T15:48:13;3.13;;;1.00;;
21941;SDS011;11135;54.192;15.670;2022-08-21T15:54:17;2.70;;;1.00;;
21941;SDS011;11135;54.192;15.670;2022-08-21T16:00:21;4.15;;;1.20;;
21941;SDS011;11135;54.192;15.670;2022-08-21T16:06:29;3.95;;;1.40;;
21941;SDS011;11135;54.192;15.670;2022-08-21T16:12:54;3.53;;;1.10;;
21941;SDS011;11135;54.192;15.670;2022-08-21T16:19:01;3.65;;;1.40;;
21941;SDS011;11135;54.192;15.670;2022-08-21T16:25:09;3.97;;;1.40;;
21941;SDS011;11135;54.192;15.670;2022-08-21T16:31:13;2.75;;;1.23;;
21941;SDS011;11135;54.192;15.670;2022-08-21T16:37:18;3.55;;;1.20;;
21941;SDS011;11135;54.192;15.670;2022-08-21T16:43:27;2.25;;;1.13;;
21941;SDS011;11135;54.192;15.670;2022-08-21T16:49:33;3.20;;;1.10;;
21941;SDS011;11135;54.192;15.670;2022-08-21T16:55:37;2.78;;;1.10;;
21941;SDS011;11135;54.192;15.670;2022-08-21T17:01:43;6.18;;;1.20;;
21941;SDS011;11135;54.192;15.670;2022-08-21T17:07:48;5.72;;;1.45;;
21941;SDS011;11135;54.192;15.670;2022-08-21T17:13:52;3.00;;;1.20;;
21941;SDS011;11135;54.192;15.670;2022-08-21T17:19:59;2.80;;;0.95;;
21941;SDS011;11135;54.192;15.670;2022-08-21T17:26:02;4.03;;;1.10;;
21941;SDS011;11135;54.192;15.670;2022-08-21T17:32:12;4.18;;;1.30;;
21941;SDS011;11135;54.192;15.670;2022-08-21T17:38:22;5.68;;;1.70;;
21941;SDS011;11135;54.192;15.670;2022-08-21T17:44:28;3.75;;;1.30;;
21941;SDS011;11135;54.192;15.670;2022-08-21T17:50:33;3.40;;;1.40;;
21941;SDS011;11135;54.192;15.670;2022-08-21T17:56:39;4.00;;;1.42;;
21941;SDS011;11135;54.192;15.670;2022-08-21T18:02:45;2.83;;;1.00;;
21941;SDS011;11135;54.192;15.670;2022-08-21T18:08:54;4.18;;;1.35;;
21941;SDS011;11135;54.192;15.670;2022-08-21T18:15:00;4.07;;;1.20;;
21941;SDS011;11135;54.192;15.670;2022-08-21T18:21:05;3.70;;;1.48;;
21941;SDS011;11135;54.192;15.670;2022-08-21T18:27:11;4.75;;;1.60;;
21941;SDS011;11135;54.192;15.670;2022-08-21T18:33:20;6.75;;;1.70;;
21941;SDS011;11135;54.192;15.670;2022-08-21T18:39:25;2.72;;;1.40;;
21941;SDS011;11135;54.192;15.670;2022-08-21T18:45:38;4.10;;;1.33;;
21941;SDS011;11135;54.192;15.670;2022-08-21T18:51:44;3.63;;;1.27;;
21941;SDS011;11135;54.192;15.670;2022-08-21T18:57:49;2.85;;;1.65;;
21941;SDS011;11135;54.192;15.670;2022-08-21T19:04:02;5.07;;;1.67;;
21941;SDS011;11135;54.192;15.670;2022-08-21T19:10:13;4.35;;;1.60;;
21941;SDS011;11135;54.192;15.670;2022-08-21T19:16:38;4.22;;;1.58;;
21941;SDS011;11135;54.192;15.670;2022-08-21T19:22:48;3.53;;;1.48;;
21941;SDS011;11135;54.192;15.670;2022-08-21T19:28:56;2.50;;;1.20;;
21941;SDS011;11135;54.192;15.670;2022-08-21T19:35:06;5.03;;;1.13;;
21941;SDS011;11135;54.192;15.670;2022-08-21T19:41:12;2.83;;;1.20;;
21941;SDS011;11135;54.192;15.670;2022-08-21T19:47:19;3.55;;;1.30;;
21941;SDS011;11135;54.192;15.670;2022-08-21T19:53:45;2.78;;;1.17;;
21941;SDS011;11135;54.192;15.670;2022-08-21T19:59:56;3.88;;;1.55;;
21941;SDS011;11135;54.192;15.670;2022-08-21T20:06:02;3.92;;;1.55;;
21941;SDS011;11135;54.192;15.670;2022-08-21T20:12:07;3.30;;;1.52;;
21941;SDS011;11135;54.192;15.670;2022-08-21T20:18:14;3.13;;;1.60;;
21941;SDS011;11135;54.192;15.670;2022-08-21T20:24:19;2.67;;;1.20;;
21941;SDS011;11135;54.192;15.670;2022-08-21T20:30:28;4.22;;;1.75;;
21941;SDS011;11135;54.192;15.670;2022-08-21T20:36:32;4.72;;;1.40;;
21941;SDS011;11135;54.192;15.670;2022-08-21T20:42:39;4.10;;;1.48;;
21941;SDS011;11135;54.192;15.670;2022-08-21T20:48:46;3.25;;;1.25;;
21941;SDS011;11135;54.192;15.670;2022-08-21T20:55:10;3.90;;;1.60;;
21941;SDS011;11135;54.192;15.670;2022-08-21T21:01:18;3.40;;;1.40;;
21941;SDS011;11135;54.192;15.670;2022-08-21T21:07:24;5.85;;;1.58;;
21941;SDS011;11135;54.192;15.670;2022-08-21T21:13:33;2.90;;;1.50;;
21941;SDS011;11135;54.192;15.670;2022-08-21T21:19:46;7.68;;;1.52;;
21941;SDS011;11135;54.192;15.670;2022-08-21T21:25:56;4.57;;;1.40;;
21941;SDS011;11135;54.192;15.670;2022-08-21T21:32:07;3.40;;;1.30;;
21941;SDS011;11135;54.192;15.670;2022-08-21T21:38:21;3.45;;;1.67;;
21941;SDS011;11135;54.192;15.670;2022-08-21T21:44:38;3.40;;;1.35;;
21941;SDS011;11135;54.192;15.670;2022-08-21T21:50:56;2.50;;;1.50;;
21941;SDS011;11135;54.192;15.670;2022-08-21T21:57:17;2.83;;;1.45;;
21941;SDS011;11135;54.192;15.670;2022-08-21T22:03:34;3.70;;;2.00;;
21941;SDS011;11135;54.192;15.670;2022-08-21T22:09:45;4.60;;;1.95;;
21941;SDS011;11135;54.192;15.670;2022-08-21T22:15:53;3.17;;;1.83;;
21941;SDS011;11135;54.192;15.670;2022-08-21T22:21:58;3.85;;;1.55;;
21941;SDS011;11135;54.192;15.670;2022-08-21T22:28:11;5.28;;;1.75;;
21941;SDS011;11135;54.192;15.670;2022-08-21T22:34:28;4.05;;;1.90;;
21941;SDS011;11135;54.192;15.670;2022-08-21T22:40:34;4.20;;;1.65;;
21941;SDS011;11135;54.192;15.670;2022-08-21T22:46:41;3.33;;;1.60;;
21941;SDS011;11135;54.192;15.670;2022-08-21T22:52:48;3.17;;;1.58;;
21941;SDS011;11135;54.192;15.670;2022-08-21T22:58:56;2.85;;;1.55;;
21941;SDS011;11135;54.192;15.670;2022-08-21T23:05:03;3.42;;;1.80;;
21941;SDS011;11135;54.192;15.670;2022-08-21T23:11:14;3.63;;;1.67;;
21941;SDS011;11135;54.192;15.670;2022-08-21T23:17:28;3.13;;;1.70;;
21941;SDS011;11135;54.192;15.670;2022-08-21T23:23:42;4.65;;;1.67;;
21941;SDS011;11135;54.192;15.670;2022-08-21T23:30:07;4.25;;;1.70;;
21941;SDS011;11135;54.192;15.670;2022-08-21T23:36:15;2.95;;;1.67;;
21941;SDS011;11135;54.192;15.670;2022-08-21T23:42:47;4.03;;;1.73;;
21941;SDS011;11135;54.192;15.670;2022-08-21T23:49:07;4.43;;;1.70;;
21941;SDS011;11135;54.192;15.670;2022-08-21T23:55:33;3.90;;;1.90;;
